sensor_id;sensor_type;location;lat;lon;timestamp;P1;durP1;ratioP1;P2;durP2;ratioP2
45392;SDS011;31129;44.810;10.334;2023-03-19T00:01:40;34.88;;;17.83;;
45392;SDS011;31129;44.810;10.334;2023-03-19T00:04:05;30.70;;;16.17;;
45392;SDS011;31129;44.810;10.334;2023-03-19T00:06:31;33.47;;;18.33;;
45392;SDS011;31129;44.810;10.334;2023-03-19T00:08:57;32.33;;;17.25;;
45392;SDS011;31129;44.810;10.334;2023-03-19T00:11:22;31.33;;;16.25;;
45392;SDS011;31129;44.810;10.334;2023-03-19T00:13:48;33.13;;;17.55;;
45392;SDS011;31129;44.810;10.334;2023-03-19T00:16:13;34.03;;;18.65;;
45392;SDS011;31129;44.810;10.334;2023-03-19T00:18:38;32.83;;;17.08;;
45392;SDS011;31129;44.810;10.334;2023-03-19T00:21:04;31.92;;;17.08;;
45392;SDS011;31129;44.810;10.334;2023-03-19T00:23:30;28.70;;;15.85;;
45392;SDS011;31129;44.810;10.334;2023-03-19T00:25:56;33.03;;;16.90;;
45392;SDS011;31129;44.810;10.334;2023-03-19T00:28:21;27.40;;;15.88;;
45392;SDS011;31129;44.810;10.334;2023-03-19T00:30:47;34.70;;;16.70;;
45392;SDS011;31129;44.810;10.334;2023-03-19T00:33:13;28.67;;;16.92;;
45392;SDS011;31129;44.810;10.334;2023-03-19T00:35:39;31.17;;;15.90;;
45392;SDS011;31129;44.810;10.334;2023-03-19T00:38:04;28.45;;;15.93;;
45392;SDS011;31129;44.810;10.334;2023-03-19T00:40:30;35.58;;;17.60;;
45392;SDS011;31129;44.810;10.334;2023-03-19T00:42:56;29.58;;;15.88;;
45392;SDS011;31129;44.810;10.334;2023-03-19T00:45:21;27.20;;;15.65;;
45392;SDS011;31129;44.810;10.334;2023-03-19T00:47:46;27.33;;;15.73;;
45392;SDS011;31129;44.810;10.334;2023-03-19T00:50:12;31.30;;;15.80;;
45392;SDS011;31129;44.810;10.334;2023-03-19T00:52:38;30.85;;;16.45;;
45392;SDS011;31129;44.810;10.334;2023-03-19T00:55:03;28.50;;;16.17;;
45392;SDS011;31129;44.810;10.334;2023-03-19T00:57:29;33.80;;;15.70;;
45392;SDS011;31129;44.810;10.334;2023-03-19T00:59:54;30.63;;;15.52;;
45392;SDS011;31129;44.810;10.334;2023-03-19T01:02:20;33.03;;;18.02;;
45392;SDS011;31129;44.810;10.334;2023-03-19T01:04:48;30.08;;;17.60;;
45392;SDS011;31129;44.810;10.334;2023-03-19T01:07:14;36.78;;;19.80;;
45392;SDS011;31129;44.810;10.334;2023-03-19T01:09:40;31.13;;;19.23;;
45392;SDS011;31129;44.810;10.334;2023-03-19T01:12:06;41.97;;;20.85;;
45392;SDS011;31129;44.810;10.334;2023-03-19T01:14:32;32.78;;;19.63;;
45392;SDS011;31129;44.810;10.334;2023-03-19T01:16:57;37.05;;;21.23;;
45392;SDS011;31129;44.810;10.334;2023-03-19T01:19:25;39.50;;;21.88;;
45392;SDS011;31129;44.810;10.334;2023-03-19T01:21:51;37.03;;;20.05;;
45392;SDS011;31129;44.810;10.334;2023-03-19T01:24:19;39.67;;;20.83;;
45392;SDS011;31129;44.810;10.334;2023-03-19T01:26:50;37.17;;;21.23;;
45392;SDS011;31129;44.810;10.334;2023-03-19T01:29:26;38.53;;;21.95;;
45392;SDS011;31129;44.810;10.334;2023-03-19T01:31:53;44.05;;;24.15;;
45392;SDS011;31129;44.810;10.334;2023-03-19T01:34:37;35.92;;;21.60;;
45392;SDS011;31129;44.810;10.334;2023-03-19T01:37:07;40.38;;;21.77;;
45392;SDS011;31129;44.810;10.334;2023-03-19T01:39:33;34.78;;;20.90;;
45392;SDS011;31129;44.810;10.334;2023-03-19T01:42:02;40.78;;;20.98;;
45392;SDS011;31129;44.810;10.334;2023-03-19T01:44:47;38.20;;;21.73;;
45392;SDS011;31129;44.810;10.334;2023-03-19T01:47:35;34.42;;;21.00;;
45392;SDS011;31129;44.810;10.334;2023-03-19T01:50:41;40.05;;;21.45;;
45392;SDS011;31129;44.810;10.334;2023-03-19T01:53:25;40.92;;;21.25;;
45392;SDS011;31129;44.810;10.334;2023-03-19T01:56:21;39.38;;;22.23;;
45392;SDS011;31129;44.810;10.334;2023-03-19T01:59:12;37.45;;;21.45;;
45392;SDS011;31129;44.810;10.334;2023-03-19T02:04:34;43.80;;;22.35;;
45392;SDS011;31129;44.810;10.334;2023-03-19T02:07:02;42.25;;;21.38;;
45392;SDS011;31129;44.810;10.334;2023-03-19T02:09:29;35.92;;;21.95;;
45392;SDS011;31129;44.810;10.334;2023-03-19T02:11:56;36.75;;;21.58;;
45392;SDS011;31129;44.810;10.334;2023-03-19T02:14:26;35.90;;;21.98;;
45392;SDS011;31129;44.810;10.334;2023-03-19T02:16:52;38.65;;;22.23;;
45392;SDS011;31129;44.810;10.334;2023-03-19T02:19:54;40.05;;;22.58;;
45392;SDS011;31129;44.810;10.334;2023-03-19T02:22:22;41.22;;;23.98;;
45392;SDS011;31129;44.810;10.334;2023-03-19T02:24:56;38.50;;;22.95;;
45392;SDS011;31129;44.810;10.334;2023-03-19T02:27:23;42.85;;;24.10;;
45392;SDS011;31129;44.810;10.334;2023-03-19T02:29:49;50.47;;;24.83;;
45392;SDS011;31129;44.810;10.334;2023-03-19T02:32:15;42.35;;;24.95;;
45392;SDS011;31129;44.810;10.334;2023-03-19T02:34:41;40.35;;;23.50;;
45392;SDS011;31129;44.810;10.334;2023-03-19T02:37:10;39.67;;;23.70;;
45392;SDS011;31129;44.810;10.334;2023-03-19T02:42:15;43.53;;;24.65;;
45392;SDS011;31129;44.810;10.334;2023-03-19T02:44:43;43.47;;;24.77;;
45392;SDS011;31129;44.810;10.334;2023-03-19T02:47:10;40.60;;;23.60;;
45392;SDS011;31129;44.810;10.334;2023-03-19T02:49:35;40.35;;;23.67;;
45392;SDS011;31129;44.810;10.334;2023-03-19T02:52:01;36.50;;;22.58;;
45392;SDS011;31129;44.810;10.334;2023-03-19T02:54:26;41.65;;;24.63;;
45392;SDS011;31129;44.810;10.334;2023-03-19T02:56:52;39.28;;;23.23;;
45392;SDS011;31129;44.810;10.334;2023-03-19T02:59:17;38.40;;;23.27;;
45392;SDS011;31129;44.810;10.334;2023-03-19T03:01:43;42.42;;;23.35;;
45392;SDS011;31129;44.810;10.334;2023-03-19T03:04:08;50.65;;;23.48;;
45392;SDS011;31129;44.810;10.334;2023-03-19T03:06:35;41.38;;;23.70;;
45392;SDS011;31129;44.810;10.334;2023-03-19T03:09:01;39.58;;;22.52;;
45392;SDS011;31129;44.810;10.334;2023-03-19T03:11:27;44.75;;;23.38;;
45392;SDS011;31129;44.810;10.334;2023-03-19T03:13:53;40.38;;;23.05;;
45392;SDS011;31129;44.810;10.334;2023-03-19T03:16:18;49.65;;;23.02;;
45392;SDS011;31129;44.810;10.334;2023-03-19T03:18:43;37.08;;;21.80;;
45392;SDS011;31129;44.810;10.334;2023-03-19T03:21:09;41.17;;;22.83;;
45392;SDS011;31129;44.810;10.334;2023-03-19T03:23:35;36.60;;;21.55;;
45392;SDS011;31129;44.810;10.334;2023-03-19T03:26:01;36.72;;;21.25;;
45392;SDS011;31129;44.810;10.334;2023-03-19T03:28:27;39.45;;;23.33;;
45392;SDS011;31129;44.810;10.334;2023-03-19T03:30:57;31.80;;;19.33;;
45392;SDS011;31129;44.810;10.334;2023-03-19T03:33:23;40.58;;;21.25;;
45392;SDS011;31129;44.810;10.334;2023-03-19T03:35:49;39.80;;;21.25;;
45392;SDS011;31129;44.810;10.334;2023-03-19T03:38:15;34.83;;;18.15;;
45392;SDS011;31129;44.810;10.334;2023-03-19T03:40:40;32.30;;;18.40;;
45392;SDS011;31129;44.810;10.334;2023-03-19T03:43:06;29.55;;;18.20;;
45392;SDS011;31129;44.810;10.334;2023-03-19T03:45:33;33.20;;;18.67;;
45392;SDS011;31129;44.810;10.334;2023-03-19T03:47:59;35.58;;;20.10;;
45392;SDS011;31129;44.810;10.334;2023-03-19T03:50:24;35.83;;;19.80;;
45392;SDS011;31129;44.810;10.334;2023-03-19T03:52:52;33.03;;;19.35;;
45392;SDS011;31129;44.810;10.334;2023-03-19T03:55:18;38.45;;;20.13;;
45392;SDS011;31129;44.810;10.334;2023-03-19T03:57:43;30.88;;;19.42;;
45392;SDS011;31129;44.810;10.334;2023-03-19T04:00:09;31.25;;;18.13;;
45392;SDS011;31129;44.810;10.334;2023-03-19T04:02:42;36.05;;;19.02;;
45392;SDS011;31129;44.810;10.334;2023-03-19T04:05:12;32.08;;;18.67;;
45392;SDS011;31129;44.810;10.334;2023-03-19T04:07:37;33.35;;;18.75;;
45392;SDS011;31129;44.810;10.334;2023-03-19T04:10:04;33.05;;;18.35;;
45392;SDS011;31129;44.810;10.334;2023-03-19T04:12:30;34.47;;;18.23;;
45392;SDS011;31129;44.810;10.334;2023-03-19T04:14:55;27.73;;;17.30;;
45392;SDS011;31129;44.810;10.334;2023-03-19T04:17:21;38.53;;;19.45;;
45392;SDS011;31129;44.810;10.334;2023-03-19T04:19:47;31.70;;;18.70;;
45392;SDS011;31129;44.810;10.334;2023-03-19T04:22:13;32.33;;;19.38;;
45392;SDS011;31129;44.810;10.334;2023-03-19T04:24:40;32.63;;;17.45;;
45392;SDS011;31129;44.810;10.334;2023-03-19T04:27:05;24.63;;;14.90;;
45392;SDS011;31129;44.810;10.334;2023-03-19T04:29:33;21.98;;;12.02;;
45392;SDS011;31129;44.810;10.334;2023-03-19T04:31:59;27.00;;;14.07;;
45392;SDS011;31129;44.810;10.334;2023-03-19T04:34:24;20.30;;;11.95;;
45392;SDS011;31129;44.810;10.334;2023-03-19T04:36:50;22.88;;;12.43;;
45392;SDS011;31129;44.810;10.334;2023-03-19T04:39:16;20.27;;;11.43;;
45392;SDS011;31129;44.810;10.334;2023-03-19T04:41:42;21.05;;;11.88;;
45392;SDS011;31129;44.810;10.334;2023-03-19T04:44:27;25.90;;;11.30;;
45392;SDS011;31129;44.810;10.334;2023-03-19T04:46:53;27.42;;;10.63;;
45392;SDS011;31129;44.810;10.334;2023-03-19T04:49:22;23.52;;;10.48;;
45392;SDS011;31129;44.810;10.334;2023-03-19T04:51:50;19.30;;;10.15;;
45392;SDS011;31129;44.810;10.334;2023-03-19T04:54:15;18.05;;;9.63;;
45392;SDS011;31129;44.810;10.334;2023-03-19T04:56:41;17.38;;;10.57;;
45392;SDS011;31129;44.810;10.334;2023-03-19T05:01:35;18.67;;;9.82;;
45392;SDS011;31129;44.810;10.334;2023-03-19T05:04:05;19.55;;;10.57;;
45392;SDS011;31129;44.810;10.334;2023-03-19T05:06:33;23.08;;;10.43;;
45392;SDS011;31129;44.810;10.334;2023-03-19T05:09:00;19.13;;;9.30;;
45392;SDS011;31129;44.810;10.334;2023-03-19T05:11:29;19.25;;;9.55;;
45392;SDS011;31129;44.810;10.334;2023-03-19T05:14:01;18.27;;;9.63;;
45392;SDS011;31129;44.810;10.334;2023-03-19T05:16:44;19.50;;;10.10;;
45392;SDS011;31129;44.810;10.334;2023-03-19T05:19:09;23.20;;;10.13;;
45392;SDS011;31129;44.810;10.334;2023-03-19T05:21:38;21.02;;;10.82;;
45392;SDS011;31129;44.810;10.334;2023-03-19T05:24:05;20.80;;;10.27;;
45392;SDS011;31129;44.810;10.334;2023-03-19T05:26:34;37.03;;;11.20;;
45392;SDS011;31129;44.810;10.334;2023-03-19T05:29:02;18.50;;;10.05;;
45392;SDS011;31129;44.810;10.334;2023-03-19T05:31:39;15.63;;;9.48;;
45392;SDS011;31129;44.810;10.334;2023-03-19T05:34:05;18.77;;;10.10;;
45392;SDS011;31129;44.810;10.334;2023-03-19T05:36:32;22.00;;;11.55;;
45392;SDS011;31129;44.810;10.334;2023-03-19T05:39:10;22.08;;;11.35;;
45392;SDS011;31129;44.810;10.334;2023-03-19T05:41:37;18.80;;;10.60;;
45392;SDS011;31129;44.810;10.334;2023-03-19T05:44:05;20.58;;;13.43;;
45392;SDS011;31129;44.810;10.334;2023-03-19T05:46:49;28.02;;;15.57;;
45392;SDS011;31129;44.810;10.334;2023-03-19T05:49:16;29.10;;;15.25;;
45392;SDS011;31129;44.810;10.334;2023-03-19T05:51:42;26.25;;;15.65;;
45392;SDS011;31129;44.810;10.334;2023-03-19T05:54:08;29.10;;;16.08;;
45392;SDS011;31129;44.810;10.334;2023-03-19T05:56:37;28.75;;;15.98;;
45392;SDS011;31129;44.810;10.334;2023-03-19T05:59:24;29.00;;;17.40;;
45392;SDS011;31129;44.810;10.334;2023-03-19T06:02:01;23.67;;;12.77;;
45392;SDS011;31129;44.810;10.334;2023-03-19T06:04:27;37.20;;;16.83;;
45392;SDS011;31129;44.810;10.334;2023-03-19T06:06:52;30.80;;;18.35;;
45392;SDS011;31129;44.810;10.334;2023-03-19T06:09:18;30.77;;;17.17;;
45392;SDS011;31129;44.810;10.334;2023-03-19T06:11:50;31.60;;;17.88;;
45392;SDS011;31129;44.810;10.334;2023-03-19T06:14:45;32.78;;;17.88;;
45392;SDS011;31129;44.810;10.334;2023-03-19T06:17:38;34.20;;;17.80;;
45392;SDS011;31129;44.810;10.334;2023-03-19T06:20:07;29.77;;;18.27;;
45392;SDS011;31129;44.810;10.334;2023-03-19T06:22:34;30.75;;;18.23;;
45392;SDS011;31129;44.810;10.334;2023-03-19T06:25:00;32.50;;;18.25;;
45392;SDS011;31129;44.810;10.334;2023-03-19T06:27:25;30.50;;;18.35;;
45392;SDS011;31129;44.810;10.334;2023-03-19T06:29:58;37.50;;;21.00;;
45392;SDS011;31129;44.810;10.334;2023-03-19T06:32:29;37.22;;;19.77;;
45392;SDS011;31129;44.810;10.334;2023-03-19T06:35:01;33.63;;;19.33;;
45392;SDS011;31129;44.810;10.334;2023-03-19T06:37:27;32.33;;;20.10;;
45392;SDS011;31129;44.810;10.334;2023-03-19T06:39:53;36.92;;;20.02;;
45392;SDS011;31129;44.810;10.334;2023-03-19T06:42:21;34.53;;;18.42;;
45392;SDS011;31129;44.810;10.334;2023-03-19T06:44:47;26.77;;;14.55;;
45392;SDS011;31129;44.810;10.334;2023-03-19T06:47:13;26.52;;;11.25;;
45392;SDS011;31129;44.810;10.334;2023-03-19T06:49:40;25.10;;;12.18;;
45392;SDS011;31129;44.810;10.334;2023-03-19T06:52:05;18.75;;;11.88;;
45392;SDS011;31129;44.810;10.334;2023-03-19T06:54:31;19.02;;;11.55;;
45392;SDS011;31129;44.810;10.334;2023-03-19T06:56:57;23.23;;;9.38;;
45392;SDS011;31129;44.810;10.334;2023-03-19T06:59:23;22.98;;;9.57;;
45392;SDS011;31129;44.810;10.334;2023-03-19T07:01:49;14.85;;;8.98;;
45392;SDS011;31129;44.810;10.334;2023-03-19T07:04:14;14.43;;;8.35;;
45392;SDS011;31129;44.810;10.334;2023-03-19T07:06:40;19.73;;;8.52;;
45392;SDS011;31129;44.810;10.334;2023-03-19T07:09:05;15.48;;;9.30;;
45392;SDS011;31129;44.810;10.334;2023-03-19T07:11:31;19.35;;;7.93;;
45392;SDS011;31129;44.810;10.334;2023-03-19T07:13:56;18.77;;;8.32;;
45392;SDS011;31129;44.810;10.334;2023-03-19T07:16:22;15.05;;;8.20;;
45392;SDS011;31129;44.810;10.334;2023-03-19T07:18:47;15.95;;;9.80;;
45392;SDS011;31129;44.810;10.334;2023-03-19T07:21:12;18.88;;;8.98;;
45392;SDS011;31129;44.810;10.334;2023-03-19T07:23:38;18.88;;;9.88;;
45392;SDS011;31129;44.810;10.334;2023-03-19T07:26:04;17.08;;;8.90;;
45392;SDS011;31129;44.810;10.334;2023-03-19T07:28:29;17.80;;;9.40;;
45392;SDS011;31129;44.810;10.334;2023-03-19T07:30:55;17.38;;;9.60;;
45392;SDS011;31129;44.810;10.334;2023-03-19T07:33:21;24.65;;;11.68;;
45392;SDS011;31129;44.810;10.334;2023-03-19T07:35:46;20.55;;;10.68;;
45392;SDS011;31129;44.810;10.334;2023-03-19T07:38:12;20.35;;;12.70;;
45392;SDS011;31129;44.810;10.334;2023-03-19T07:40:38;20.60;;;11.63;;
45392;SDS011;31129;44.810;10.334;2023-03-19T07:43:04;19.50;;;11.95;;
45392;SDS011;31129;44.810;10.334;2023-03-19T07:45:29;19.10;;;11.38;;
45392;SDS011;31129;44.810;10.334;2023-03-19T07:47:55;25.23;;;13.25;;
45392;SDS011;31129;44.810;10.334;2023-03-19T07:50:20;21.08;;;12.88;;
45392;SDS011;31129;44.810;10.334;2023-03-19T07:52:46;28.38;;;14.70;;
45392;SDS011;31129;44.810;10.334;2023-03-19T07:55:12;27.40;;;13.65;;
45392;SDS011;31129;44.810;10.334;2023-03-19T07:57:38;26.92;;;14.13;;
45392;SDS011;31129;44.810;10.334;2023-03-19T08:00:04;27.15;;;16.05;;
45392;SDS011;31129;44.810;10.334;2023-03-19T08:02:38;24.35;;;13.15;;
45392;SDS011;31129;44.810;10.334;2023-03-19T08:05:03;20.85;;;13.40;;
45392;SDS011;31129;44.810;10.334;2023-03-19T08:07:29;20.27;;;11.27;;
45392;SDS011;31129;44.810;10.334;2023-03-19T08:09:55;22.33;;;11.45;;
45392;SDS011;31129;44.810;10.334;2023-03-19T08:12:22;21.52;;;10.18;;
45392;SDS011;31129;44.810;10.334;2023-03-19T08:14:49;18.70;;;11.02;;
45392;SDS011;31129;44.810;10.334;2023-03-19T08:17:14;22.17;;;11.27;;
45392;SDS011;31129;44.810;10.334;2023-03-19T08:19:40;16.77;;;11.32;;
45392;SDS011;31129;44.810;10.334;2023-03-19T08:22:06;19.17;;;11.00;;
45392;SDS011;31129;44.810;10.334;2023-03-19T08:24:31;16.23;;;11.05;;
45392;SDS011;31129;44.810;10.334;2023-03-19T08:26:57;19.15;;;10.32;;
45392;SDS011;31129;44.810;10.334;2023-03-19T08:29:22;16.65;;;10.10;;
45392;SDS011;31129;44.810;10.334;2023-03-19T08:31:50;21.25;;;10.90;;
45392;SDS011;31129;44.810;10.334;2023-03-19T08:34:16;20.05;;;9.65;;
45392;SDS011;31129;44.810;10.334;2023-03-19T08:36:41;16.98;;;9.38;;
45392;SDS011;31129;44.810;10.334;2023-03-19T08:39:06;14.95;;;8.98;;
45392;SDS011;31129;44.810;10.334;2023-03-19T08:41:32;22.25;;;8.85;;
45392;SDS011;31129;44.810;10.334;2023-03-19T08:43:57;14.65;;;8.30;;
45392;SDS011;31129;44.810;10.334;2023-03-19T08:46:23;14.40;;;8.38;;
45392;SDS011;31129;44.810;10.334;2023-03-19T08:48:49;20.60;;;8.80;;
45392;SDS011;31129;44.810;10.334;2023-03-19T08:51:14;18.20;;;8.93;;
45392;SDS011;31129;44.810;10.334;2023-03-19T08:53:40;15.95;;;8.13;;
45392;SDS011;31129;44.810;10.334;2023-03-19T08:56:06;18.80;;;8.60;;
45392;SDS011;31129;44.810;10.334;2023-03-19T08:58:32;13.35;;;7.95;;
45392;SDS011;31129;44.810;10.334;2023-03-19T09:01:05;15.70;;;9.52;;
45392;SDS011;31129;44.810;10.334;2023-03-19T09:03:33;12.50;;;8.48;;
45392;SDS011;31129;44.810;10.334;2023-03-19T09:05:59;20.48;;;9.57;;
45392;SDS011;31129;44.810;10.334;2023-03-19T09:08:25;16.23;;;9.63;;
45392;SDS011;31129;44.810;10.334;2023-03-19T09:10:51;14.70;;;8.95;;
45392;SDS011;31129;44.810;10.334;2023-03-19T09:13:16;21.70;;;9.38;;
45392;SDS011;31129;44.810;10.334;2023-03-19T09:15:41;15.40;;;8.75;;
45392;SDS011;31129;44.810;10.334;2023-03-19T09:18:07;14.60;;;8.88;;
45392;SDS011;31129;44.810;10.334;2023-03-19T09:20:32;17.40;;;8.77;;
45392;SDS011;31129;44.810;10.334;2023-03-19T09:22:58;17.33;;;9.20;;
45392;SDS011;31129;44.810;10.334;2023-03-19T09:25:23;19.50;;;10.38;;
45392;SDS011;31129;44.810;10.334;2023-03-19T09:27:48;18.42;;;10.35;;
45392;SDS011;31129;44.810;10.334;2023-03-19T09:30:14;16.83;;;8.45;;
45392;SDS011;31129;44.810;10.334;2023-03-19T09:32:39;16.77;;;8.88;;
45392;SDS011;31129;44.810;10.334;2023-03-19T09:35:05;16.45;;;10.32;;
45392;SDS011;31129;44.810;10.334;2023-03-19T09:37:31;20.90;;;9.57;;
45392;SDS011;31129;44.810;10.334;2023-03-19T09:40:00;23.15;;;11.07;;
45392;SDS011;31129;44.810;10.334;2023-03-19T09:42:48;15.95;;;11.60;;
45392;SDS011;31129;44.810;10.334;2023-03-19T09:45:35;19.00;;;11.60;;
45392;SDS011;31129;44.810;10.334;2023-03-19T09:48:04;19.27;;;11.15;;
45392;SDS011;31129;44.810;10.334;2023-03-19T09:50:36;23.42;;;12.13;;
45392;SDS011;31129;44.810;10.334;2023-03-19T09:53:05;20.48;;;12.90;;
45392;SDS011;31129;44.810;10.334;2023-03-19T09:55:40;20.45;;;12.82;;
45392;SDS011;31129;44.810;10.334;2023-03-19T09:58:21;21.27;;;12.85;;
45392;SDS011;31129;44.810;10.334;2023-03-19T10:00:51;19.13;;;13.52;;
45392;SDS011;31129;44.810;10.334;2023-03-19T10:11:05;24.02;;;15.70;;
45392;SDS011;31129;44.810;10.334;2023-03-19T10:16:21;30.05;;;17.30;;
45392;SDS011;31129;44.810;10.334;2023-03-19T10:18:50;29.20;;;17.50;;
45392;SDS011;31129;44.810;10.334;2023-03-19T10:26:40;28.77;;;18.33;;
45392;SDS011;31129;44.810;10.334;2023-03-19T10:29:14;33.13;;;19.27;;
45392;SDS011;31129;44.810;10.334;2023-03-19T10:34:51;28.98;;;19.30;;
45392;SDS011;31129;44.810;10.334;2023-03-19T10:37:25;32.05;;;18.30;;
45392;SDS011;31129;44.810;10.334;2023-03-19T10:40:01;30.25;;;19.70;;
45392;SDS011;31129;44.810;10.334;2023-03-19T10:47:43;32.80;;;21.42;;
45392;SDS011;31129;44.810;10.334;2023-03-19T10:50:19;36.10;;;21.83;;
45392;SDS011;31129;44.810;10.334;2023-03-19T10:52:50;38.90;;;22.30;;
45392;SDS011;31129;44.810;10.334;2023-03-19T10:55:22;35.83;;;23.67;;
45392;SDS011;31129;44.810;10.334;2023-03-19T10:57:50;34.08;;;22.33;;
45392;SDS011;31129;44.810;10.334;2023-03-19T11:00:25;37.25;;;24.25;;
45392;SDS011;31129;44.810;10.334;2023-03-19T11:02:56;44.22;;;24.55;;
45392;SDS011;31129;44.810;10.334;2023-03-19T11:05:30;39.88;;;24.83;;
45392;SDS011;31129;44.810;10.334;2023-03-19T11:08:01;41.08;;;26.60;;
45392;SDS011;31129;44.810;10.334;2023-03-19T11:10:28;43.83;;;27.90;;
45392;SDS011;31129;44.810;10.334;2023-03-19T11:15:38;46.97;;;28.25;;
45392;SDS011;31129;44.810;10.334;2023-03-19T11:18:06;49.30;;;28.80;;
45392;SDS011;31129;44.810;10.334;2023-03-19T11:20:39;46.78;;;29.05;;
45392;SDS011;31129;44.810;10.334;2023-03-19T11:23:06;46.67;;;28.48;;
45392;SDS011;31129;44.810;10.334;2023-03-19T11:25:40;44.13;;;30.98;;
45392;SDS011;31129;44.810;10.334;2023-03-19T11:28:11;45.85;;;29.95;;
45392;SDS011;31129;44.810;10.334;2023-03-19T11:30:41;48.85;;;32.20;;
45392;SDS011;31129;44.810;10.334;2023-03-19T11:39:18;54.47;;;31.15;;
45392;SDS011;31129;44.810;10.334;2023-03-19T11:42:02;43.10;;;30.58;;
45392;SDS011;31129;44.810;10.334;2023-03-19T11:56:24;52.40;;;30.70;;
45392;SDS011;31129;44.810;10.334;2023-03-19T12:20:39;45.95;;;29.60;;
45392;SDS011;31129;44.810;10.334;2023-03-19T12:23:34;45.85;;;29.05;;
45392;SDS011;31129;44.810;10.334;2023-03-19T12:34:37;42.85;;;28.60;;
45392;SDS011;31129;44.810;10.334;2023-03-19T12:37:21;44.20;;;27.38;;
45392;SDS011;31129;44.810;10.334;2023-03-19T12:40:04;47.88;;;28.27;;
45392;SDS011;31129;44.810;10.334;2023-03-19T12:42:38;40.90;;;26.88;;
45392;SDS011;31129;44.810;10.334;2023-03-19T12:45:10;37.15;;;25.15;;
45392;SDS011;31129;44.810;10.334;2023-03-19T12:48:06;35.65;;;23.88;;
45392;SDS011;31129;44.810;10.334;2023-03-19T12:50:40;39.20;;;23.70;;
45392;SDS011;31129;44.810;10.334;2023-03-19T12:53:34;31.15;;;21.60;;
45392;SDS011;31129;44.810;10.334;2023-03-19T12:56:15;41.65;;;24.67;;
45392;SDS011;31129;44.810;10.334;2023-03-19T13:01:35;41.08;;;26.05;;
45392;SDS011;31129;44.810;10.334;2023-03-19T13:04:12;45.92;;;28.42;;
45392;SDS011;31129;44.810;10.334;2023-03-19T13:06:43;44.30;;;26.92;;
45392;SDS011;31129;44.810;10.334;2023-03-19T13:09:19;40.80;;;27.55;;
45392;SDS011;31129;44.810;10.334;2023-03-19T13:22:58;48.88;;;27.63;;
45392;SDS011;31129;44.810;10.334;2023-03-19T13:25:32;43.88;;;27.42;;
45392;SDS011;31129;44.810;10.334;2023-03-19T13:28:01;43.03;;;28.30;;
45392;SDS011;31129;44.810;10.334;2023-03-19T13:30:34;46.05;;;27.35;;
45392;SDS011;31129;44.810;10.334;2023-03-19T13:33:12;40.70;;;25.77;;
45392;SDS011;31129;44.810;10.334;2023-03-19T13:35:42;42.53;;;24.45;;
45392;SDS011;31129;44.810;10.334;2023-03-19T13:38:23;41.17;;;24.92;;
45392;SDS011;31129;44.810;10.334;2023-03-19T13:40:51;40.38;;;25.05;;
45392;SDS011;31129;44.810;10.334;2023-03-19T13:43:22;41.55;;;25.35;;
45392;SDS011;31129;44.810;10.334;2023-03-19T13:56:54;35.90;;;25.02;;
45392;SDS011;31129;44.810;10.334;2023-03-19T14:01:51;36.75;;;24.23;;
45392;SDS011;31129;44.810;10.334;2023-03-19T14:04:17;37.25;;;23.85;;
45392;SDS011;31129;44.810;10.334;2023-03-19T14:09:45;33.63;;;22.90;;
45392;SDS011;31129;44.810;10.334;2023-03-19T14:12:30;36.53;;;24.70;;
45392;SDS011;31129;44.810;10.334;2023-03-19T14:15:02;36.97;;;22.85;;
45392;SDS011;31129;44.810;10.334;2023-03-19T14:17:45;36.95;;;23.88;;
45392;SDS011;31129;44.810;10.334;2023-03-19T14:20:26;38.75;;;23.73;;
45392;SDS011;31129;44.810;10.334;2023-03-19T14:25:29;40.00;;;23.50;;
45392;SDS011;31129;44.810;10.334;2023-03-19T14:31:17;42.83;;;26.45;;
45392;SDS011;31129;44.810;10.334;2023-03-19T14:34:28;41.95;;;26.52;;
45392;SDS011;31129;44.810;10.334;2023-03-19T14:39:29;41.90;;;27.02;;
45392;SDS011;31129;44.810;10.334;2023-03-19T14:42:07;41.85;;;26.50;;
45392;SDS011;31129;44.810;10.334;2023-03-19T14:52:45;50.58;;;26.50;;
45392;SDS011;31129;44.810;10.334;2023-03-19T14:55:12;38.85;;;24.48;;
45392;SDS011;31129;44.810;10.334;2023-03-19T14:57:39;32.15;;;22.83;;
45392;SDS011;31129;44.810;10.334;2023-03-19T15:00:05;39.28;;;23.38;;
45392;SDS011;31129;44.810;10.334;2023-03-19T15:02:39;36.33;;;23.02;;
45392;SDS011;31129;44.810;10.334;2023-03-19T15:07:48;33.10;;;22.50;;
45392;SDS011;31129;44.810;10.334;2023-03-19T15:10:18;38.95;;;23.35;;
45392;SDS011;31129;44.810;10.334;2023-03-19T15:12:54;33.13;;;22.73;;
45392;SDS011;31129;44.810;10.334;2023-03-19T15:17:58;37.05;;;23.55;;
45392;SDS011;31129;44.810;10.334;2023-03-19T15:20:27;38.80;;;23.88;;
45392;SDS011;31129;44.810;10.334;2023-03-19T15:22:59;40.55;;;26.25;;
45392;SDS011;31129;44.810;10.334;2023-03-19T15:25:25;40.92;;;25.17;;
45392;SDS011;31129;44.810;10.334;2023-03-19T15:28:10;41.35;;;25.58;;
45392;SDS011;31129;44.810;10.334;2023-03-19T15:30:37;41.75;;;26.90;;
45392;SDS011;31129;44.810;10.334;2023-03-19T15:33:03;38.67;;;25.17;;
45392;SDS011;31129;44.810;10.334;2023-03-19T15:35:33;41.78;;;26.17;;
45392;SDS011;31129;44.810;10.334;2023-03-19T15:38:02;42.47;;;27.00;;
45392;SDS011;31129;44.810;10.334;2023-03-19T15:40:32;41.40;;;26.95;;
45392;SDS011;31129;44.810;10.334;2023-03-19T15:43:00;42.40;;;27.17;;
45392;SDS011;31129;44.810;10.334;2023-03-19T15:45:27;39.53;;;26.80;;
45392;SDS011;31129;44.810;10.334;2023-03-19T15:48:18;45.45;;;26.55;;
45392;SDS011;31129;44.810;10.334;2023-03-19T15:50:48;40.88;;;25.42;;
45392;SDS011;31129;44.810;10.334;2023-03-19T15:53:20;39.15;;;24.20;;
45392;SDS011;31129;44.810;10.334;2023-03-19T15:55:48;34.85;;;23.10;;
45392;SDS011;31129;44.810;10.334;2023-03-19T15:58:17;37.00;;;23.23;;
45392;SDS011;31129;44.810;10.334;2023-03-19T16:00:46;38.83;;;23.65;;
45392;SDS011;31129;44.810;10.334;2023-03-19T16:03:15;35.53;;;23.70;;
45392;SDS011;31129;44.810;10.334;2023-03-19T16:05:42;35.97;;;23.10;;
45392;SDS011;31129;44.810;10.334;2023-03-19T16:08:09;33.10;;;23.25;;
45392;SDS011;31129;44.810;10.334;2023-03-19T16:10:42;37.30;;;25.52;;
45392;SDS011;31129;44.810;10.334;2023-03-19T16:16:04;37.28;;;23.63;;
45392;SDS011;31129;44.810;10.334;2023-03-19T16:18:51;41.58;;;25.33;;
45392;SDS011;31129;44.810;10.334;2023-03-19T16:21:19;38.40;;;24.38;;
45392;SDS011;31129;44.810;10.334;2023-03-19T16:23:52;34.50;;;23.52;;
45392;SDS011;31129;44.810;10.334;2023-03-19T16:26:23;37.47;;;23.98;;
45392;SDS011;31129;44.810;10.334;2023-03-19T16:31:24;32.85;;;21.10;;
45392;SDS011;31129;44.810;10.334;2023-03-19T16:33:53;34.88;;;22.55;;
45392;SDS011;31129;44.810;10.334;2023-03-19T16:36:21;34.88;;;21.88;;
45392;SDS011;31129;44.810;10.334;2023-03-19T16:41:33;36.60;;;22.58;;
45392;SDS011;31129;44.810;10.334;2023-03-19T16:44:09;39.13;;;21.88;;
45392;SDS011;31129;44.810;10.334;2023-03-19T16:46:51;36.25;;;22.08;;
45392;SDS011;31129;44.810;10.334;2023-03-19T16:49:17;36.28;;;24.30;;